Time;durP1;ratioP1;P1;durP2;ratioP2;P2;SDS_P1;SDS_P2;PMS_P1;PMS_P2;Temp;Humidity;BMP_temperature;BMP_pressure;BME280_temperature;BME280_humidity;BME280_pressure;Samples;Min_cycle;Max_cycle;Signal;HPM_P1;HPM_P2
2022/04/10 00:00:53;;;;;;;6.20;2.03;;;3.10;99.90;;;;;;5060485;28;20431;-88
2022/04/10 00:03:19;;;;;;;10.83;2.40;;;3.10;99.90;;;;;;5038692;28;20107;-88
2022/04/10 00:05:46;;;;;;;11.63;2.30;;;3.10;99.90;;;;;;5018998;28;20045;-88
2022/04/10 00:08:12;;;;;;;8.67;2.97;;;3.10;99.90;;;;;;5024430;28;20029;-90
2022/04/10 00:10:37;;;;;;;13.53;2.93;;;3.10;99.90;;;;;;5039237;28;20092;-89
2022/04/10 00:13:03;;;;;;;9.03;2.37;;;3.10;99.90;;;;;;5042325;28;20048;-89
2022/04/10 00:15:29;;;;;;;8.83;2.93;;;3.10;99.90;;;;;;5024531;28;20076;-88
2022/04/10 00:17:55;;;;;;;11.20;2.80;;;3.10;99.90;;;;;;5051096;28;20083;-87
2022/04/10 00:20:21;;;;;;;11.13;2.67;;;3.10;99.90;;;;;;5041906;28;20051;-88
2022/04/10 00:22:48;;;;;;;19.27;2.63;;;3.10;99.90;;;;;;5059035;28;20041;-89
2022/04/10 00:25:16;;;;;;;10.90;2.70;;;3.10;99.90;;;;;;5040864;28;20057;-88
2022/04/10 00:27:42;;;;;;;8.57;2.90;;;3.10;99.90;;;;;;5034408;28;20056;-88
2022/04/10 00:30:09;;;;;;;9.07;2.60;;;3.10;99.90;;;;;;5029159;28;20060;-88
2022/04/10 00:32:35;;;;;;;7.17;2.23;;;3.10;99.90;;;;;;5041675;28;20151;-89
2022/04/10 00:35:00;;;;;;;11.73;2.80;;;3.10;99.90;;;;;;5020194;28;20045;-89
2022/04/10 00:37:26;;;;;;;12.27;3.20;;;3.10;99.90;;;;;;5041819;28;20072;-87
2022/04/10 00:39:52;;;;;;;11.13;2.43;;;3.10;99.90;;;;;;5056973;28;20104;-89
2022/04/10 00:42:19;;;;;;;17.43;2.77;;;3.20;99.90;;;;;;5052910;28;20044;-87
2022/04/10 00:44:44;;;;;;;15.17;2.73;;;3.10;99.90;;;;;;5006115;28;20133;-88
2022/04/10 00:47:10;;;;;;;10.37;2.53;;;3.10;99.90;;;;;;5022939;28;20053;-89
2022/04/10 00:49:39;;;;;;;14.93;2.67;;;3.10;99.90;;;;;;5041405;28;20071;-89
2022/04/10 00:52:08;;;;;;;13.03;2.77;;;3.10;99.90;;;;;;5043733;28;20060;-89
2022/04/10 00:54:35;;;;;;;12.67;2.70;;;3.10;99.90;;;;;;5020537;28;20052;-88
2022/04/10 00:57:01;;;;;;;11.90;2.60;;;3.10;99.90;;;;;;5042294;28;20041;-88
2022/04/10 00:59:29;;;;;;;10.97;2.27;;;3.10;99.90;;;;;;5009664;28;20037;-88
2022/04/10 01:01:54;;;;;;;12.83;2.50;;;3.10;99.90;;;;;;5041305;28;20058;-88
2022/04/10 01:04:21;;;;;;;11.43;2.33;;;3.00;99.90;;;;;;5042466;28;20113;-87
2022/04/10 01:06:48;;;;;;;14.40;2.97;;;3.00;99.90;;;;;;5022236;28;20043;-88
2022/04/10 01:09:15;;;;;;;8.83;2.20;;;3.00;99.90;;;;;;5058252;28;20068;-86
2022/04/10 01:11:41;;;;;;;10.60;2.27;;;3.00;99.90;;;;;;5057604;28;20032;-87
2022/04/10 01:14:08;;;;;;;12.87;2.60;;;3.00;99.90;;;;;;5035769;28;20049;-87
2022/04/10 01:16:35;;;;;;;11.27;3.13;;;3.00;99.90;;;;;;5025126;28;20083;-89
2022/04/10 01:19:03;;;;;;;15.23;2.47;;;2.90;99.90;;;;;;5058551;28;20407;-89
2022/04/10 01:21:36;;;;;;;13.60;2.73;;;2.90;99.90;;;;;;5043229;28;20044;-89
2022/04/10 01:24:03;;;;;;;16.07;2.70;;;2.90;99.90;;;;;;5047103;28;20043;-88
2022/04/10 01:26:29;;;;;;;10.90;2.37;;;2.80;99.90;;;;;;5058939;28;20044;-88
2022/04/10 01:29:04;;;;;;;11.17;2.50;;;2.80;99.90;;;;;;5032669;28;20110;-89
2022/04/10 01:31:32;;;;;;;9.07;2.43;;;2.80;99.90;;;;;;5058574;28;20041;-89
2022/04/10 01:34:00;;;;;;;9.47;3.07;;;2.80;99.90;;;;;;5044071;28;20567;-88
2022/04/10 01:36:27;;;;;;;11.83;2.70;;;2.70;99.90;;;;;;5045135;28;20048;-88
2022/04/10 01:38:57;;;;;;;14.03;3.00;;;2.60;99.90;;;;;;5061102;28;20044;-88
2022/04/10 01:41:25;;;;;;;8.27;2.27;;;2.60;99.90;;;;;;5029100;28;20036;-87
2022/04/10 01:43:52;;;;;;;12.90;2.60;;;2.60;99.90;;;;;;5013400;28;20059;-88
2022/04/10 01:46:18;;;;;;;16.13;2.77;;;2.60;99.90;;;;;;5060483;28;20048;-88
2022/04/10 01:48:45;;;;;;;10.93;2.40;;;2.60;99.90;;;;;;5039008;28;20052;-89
2022/04/10 01:51:11;;;;;;;14.80;2.70;;;2.60;99.90;;;;;;5062428;28;20048;-89
2022/04/10 01:53:37;;;;;;;11.03;2.50;;;2.60;99.90;;;;;;5044692;28;20041;-88
2022/04/10 01:56:04;;;;;;;8.57;2.30;;;2.60;99.90;;;;;;5029468;28;20052;-88
2022/04/10 01:58:31;;;;;;;10.37;2.87;;;2.50;99.90;;;;;;5040996;28;20059;-88
2022/04/10 02:00:57;;;;;;;8.53;2.80;;;2.60;99.90;;;;;;5053828;28;20127;-89
2022/04/10 02:03:23;;;;;;;12.23;2.83;;;2.50;99.90;;;;;;5035498;28;20067;-89
2022/04/10 02:05:49;;;;;;;6.17;2.30;;;2.60;99.90;;;;;;5028679;28;20048;-89
2022/04/10 02:08:15;;;;;;;11.37;2.60;;;2.50;99.90;;;;;;5045028;28;20040;-89
2022/04/10 02:10:41;;;;;;;11.57;2.60;;;2.50;99.90;;;;;;5027512;28;20052;-88
2022/04/10 02:13:09;;;;;;;10.77;2.70;;;2.50;99.90;;;;;;5028669;28;20037;-88
2022/04/10 02:15:39;;;;;;;12.30;2.20;;;2.50;99.90;;;;;;5026672;28;20124;-89
2022/04/10 02:18:06;;;;;;;8.30;2.43;;;2.40;99.90;;;;;;5044882;28;20046;-88
2022/04/10 02:20:32;;;;;;;9.27;2.50;;;2.40;99.90;;;;;;5028901;28;20131;-87
2022/04/10 02:22:58;;;;;;;8.40;2.53;;;2.40;99.90;;;;;;5039218;28;20100;-89
2022/04/10 02:25:24;;;;;;;8.97;2.80;;;2.40;99.90;;;;;;5043506;28;20040;-89
2022/04/10 02:27:50;;;;;;;10.37;2.90;;;2.40;99.90;;;;;;5043083;28;20412;-88
2022/04/10 02:30:16;;;;;;;9.50;2.57;;;2.30;99.90;;;;;;5009444;28;20723;-89
2022/04/10 02:32:42;;;;;;;13.73;3.93;;;2.40;99.90;;;;;;5060659;28;20118;-89
2022/04/10 02:35:09;;;;;;;14.70;2.60;;;2.40;99.90;;;;;;5027897;28;20114;-90
2022/04/10 02:37:35;;;;;;;10.63;2.50;;;2.40;99.90;;;;;;5042585;28;20045;-89
2022/04/10 02:40:04;;;;;;;13.07;3.20;;;2.40;99.90;;;;;;5043514;28;20287;-88
2022/04/10 02:42:33;;;;;;;12.50;2.43;;;2.40;99.90;;;;;;5030843;28;20563;-88
2022/04/10 02:45:03;;;;;;;10.83;2.43;;;2.40;99.90;;;;;;5028114;28;20078;-89
2022/04/10 02:47:32;;;;;;;13.80;3.07;;;2.50;99.90;;;;;;5030375;28;20052;-88
2022/04/10 02:49:57;;;;;;;9.43;2.67;;;2.40;99.90;;;;;;5029134;28;20059;-88
2022/04/10 02:52:23;;;;;;;9.27;2.70;;;2.50;99.90;;;;;;5045655;28;20068;-89
2022/04/10 02:54:49;;;;;;;16.30;2.87;;;2.50;99.90;;;;;;5045267;28;20041;-88
2022/04/10 02:57:15;;;;;;;13.57;2.53;;;2.40;99.90;;;;;;5044378;28;20135;-88
2022/04/10 02:59:41;;;;;;;13.13;2.53;;;2.40;99.90;;;;;;5042062;28;20057;-88
2022/04/10 03:02:07;;;;;;;10.17;2.63;;;2.40;99.90;;;;;;5060302;28;20059;-88
2022/04/10 03:04:32;;;;;;;12.13;2.80;;;2.40;99.90;;;;;;5045104;28;20060;-89
2022/04/10 03:06:58;;;;;;;14.83;3.50;;;2.40;99.90;;;;;;5026040;28;20079;-88
2022/04/10 03:09:24;;;;;;;11.30;2.47;;;2.40;99.90;;;;;;5027565;28;20948;-88
2022/04/10 03:11:50;;;;;;;14.63;3.20;;;2.50;99.90;;;;;;5002817;28;20041;-88
2022/04/10 03:14:15;;;;;;;8.77;2.73;;;2.40;99.90;;;;;;5044066;28;20131;-90
2022/04/10 03:16:42;;;;;;;11.43;2.60;;;2.40;99.90;;;;;;5060341;28;20041;-89
2022/04/10 03:19:08;;;;;;;10.13;2.80;;;2.40;99.90;;;;;;5026795;28;20052;-89
2022/04/10 03:21:34;;;;;;;8.67;2.50;;;2.50;99.90;;;;;;5017626;28;20773;-88
2022/04/10 03:24:01;;;;;;;12.10;3.03;;;2.50;99.90;;;;;;5026380;28;20318;-87
2022/04/10 03:26:27;;;;;;;10.00;2.77;;;2.50;99.90;;;;;;5028106;28;20043;-88
2022/04/10 03:28:53;;;;;;;13.90;2.53;;;2.60;99.90;;;;;;5009309;28;20049;-87
2022/04/10 03:31:20;;;;;;;10.47;2.27;;;2.60;99.90;;;;;;5027444;28;20299;-88
2022/04/10 03:33:46;;;;;;;6.43;2.07;;;2.70;99.90;;;;;;5026559;28;20045;-87
2022/04/10 03:36:13;;;;;;;11.70;2.70;;;2.70;99.90;;;;;;5059672;28;20062;-87
2022/04/10 03:38:39;;;;;;;12.30;3.43;;;2.80;99.90;;;;;;5033164;28;20122;-87
2022/04/10 03:41:05;;;;;;;13.03;2.50;;;2.80;99.90;;;;;;5025996;28;20040;-87
2022/04/10 03:43:32;;;;;;;8.90;2.10;;;2.90;99.90;;;;;;5043859;28;20040;-87
2022/04/10 03:45:58;;;;;;;10.40;2.50;;;2.90;99.90;;;;;;5010734;28;20094;-87
2022/04/10 03:48:24;;;;;;;9.63;2.10;;;2.90;99.90;;;;;;5026283;28;20048;-88
2022/04/10 03:50:50;;;;;;;8.33;2.13;;;2.90;99.90;;;;;;5041952;28;20108;-87
2022/04/10 03:53:16;;;;;;;10.23;2.30;;;3.00;99.90;;;;;;5021651;28;20071;-88
2022/04/10 03:55:42;;;;;;;7.47;2.37;;;3.00;99.90;;;;;;5046860;28;20105;-89
2022/04/10 03:58:08;;;;;;;8.83;2.87;;;3.00;99.90;;;;;;5032646;28;20047;-89
2022/04/10 04:00:34;;;;;;;6.90;2.10;;;2.90;99.90;;;;;;5043284;28;20075;-87
2022/04/10 04:03:00;;;;;;;8.37;2.00;;;2.90;99.90;;;;;;5010167;28;20045;-89
2022/04/10 04:05:25;;;;;;;6.20;2.20;;;2.90;99.90;;;;;;5059975;28;20040;-88
2022/04/10 04:07:51;;;;;;;4.87;2.67;;;2.90;99.90;;;;;;5041951;28;20044;-88
2022/04/10 04:10:17;;;;;;;9.57;2.17;;;2.90;99.90;;;;;;5027183;28;20488;-91
2022/04/10 04:12:43;;;;;;;9.03;1.90;;;2.90;99.90;;;;;;5041391;28;20072;-88
2022/04/10 04:15:11;;;;;;;7.27;2.13;;;2.90;99.90;;;;;;5009629;28;20813;-87
2022/04/10 04:17:39;;;;;;;4.83;1.90;;;2.90;99.90;;;;;;5040513;28;20059;-88
2022/04/10 04:20:07;;;;;;;9.80;1.90;;;2.90;99.90;;;;;;5025607;28;20049;-87
2022/04/10 04:22:34;;;;;;;11.33;1.93;;;2.90;99.90;;;;;;5044155;28;20131;-88
2022/04/10 04:25:00;;;;;;;8.97;1.60;;;2.90;99.90;;;;;;5025469;28;20044;-88
2022/04/10 04:27:26;;;;;;;7.57;1.90;;;2.80;99.90;;;;;;5013961;28;20184;-89
2022/04/10 04:29:52;;;;;;;5.27;1.50;;;2.80;99.90;;;;;;5057030;28;20084;-87
2022/04/10 04:32:18;;;;;;;4.27;1.43;;;2.90;99.90;;;;;;5040840;28;20109;-87
2022/04/10 04:34:43;;;;;;;4.33;1.13;;;2.90;99.90;;;;;;5021823;28;20064;-87
2022/04/10 04:37:09;;;;;;;3.73;1.30;;;2.90;99.90;;;;;;5022786;28;20045;-87
2022/04/10 04:39:36;;;;;;;5.20;1.43;;;2.90;99.90;;;;;;5024098;28;20067;-88
2022/04/10 04:42:01;;;;;;;5.03;1.20;;;2.90;99.90;;;;;;5000559;28;20120;-87
2022/04/10 04:44:30;;;;;;;8.43;1.47;;;2.90;99.90;;;;;;5025661;28;20392;-88
2022/04/10 04:46:57;;;;;;;6.03;1.30;;;2.90;99.90;;;;;;5058873;28;20165;-89
2022/04/10 04:49:22;;;;;;;7.93;1.37;;;2.70;99.90;;;;;;5024786;28;20041;-87
2022/04/10 04:51:48;;;;;;;2.47;1.20;;;2.80;99.90;;;;;;5074428;28;20055;-86
2022/04/10 04:54:14;;;;;;;4.70;1.10;;;2.70;99.90;;;;;;5023025;28;20053;-86
2022/04/10 04:56:40;;;;;;;4.07;1.60;;;2.70;99.90;;;;;;5048144;28;20044;-88
2022/04/10 04:59:06;;;;;;;6.87;1.90;;;2.70;99.90;;;;;;5023858;28;20109;-88
2022/04/10 05:01:31;;;;;;;3.67;1.33;;;2.70;99.90;;;;;;5024609;28;20048;-87
2022/04/10 05:03:57;;;;;;;4.93;1.40;;;2.70;99.90;;;;;;5025309;28;20037;-87
2022/04/10 05:06:25;;;;;;;4.03;1.50;;;2.70;99.90;;;;;;5034910;28;20040;-88
2022/04/10 05:08:51;;;;;;;3.43;1.60;;;2.70;99.90;;;;;;5006627;28;20071;-87
2022/04/10 05:11:17;;;;;;;7.07;1.30;;;2.70;99.90;;;;;;5034337;28;20476;-86
2022/04/10 05:13:43;;;;;;;5.00;1.73;;;2.70;99.90;;;;;;5055701;28;20040;-87
2022/04/10 05:16:09;;;;;;;6.73;1.50;;;2.80;99.90;;;;;;5039754;28;20120;-82
2022/04/10 05:18:36;;;;;;;6.40;1.67;;;2.70;99.90;;;;;;5010199;28;20044;-85
2022/04/10 05:21:02;;;;;;;5.90;1.30;;;2.70;99.90;;;;;;5041676;28;20293;-86
2022/04/10 05:23:28;;;;;;;8.23;1.60;;;2.80;99.90;;;;;;5041581;28;20074;-86
2022/04/10 05:25:54;;;;;;;4.90;1.43;;;2.80;99.90;;;;;;5042563;28;20104;-87
2022/04/10 05:28:20;;;;;;;6.97;1.63;;;2.80;99.90;;;;;;5007184;28;20120;-87
2022/04/10 05:30:46;;;;;;;4.00;1.33;;;2.90;99.90;;;;;;5066176;28;20060;-88
2022/04/10 05:33:12;;;;;;;6.53;1.30;;;3.00;99.90;;;;;;5051217;28;20036;-82
2022/04/10 05:35:38;;;;;;;8.60;2.30;;;3.00;99.90;;;;;;5039385;28;20045;-83
2022/04/10 05:38:04;;;;;;;5.03;1.73;;;3.00;99.90;;;;;;5012369;28;20064;-84
2022/04/10 05:40:30;;;;;;;6.67;1.40;;;3.10;99.90;;;;;;5040787;28;20048;-83
2022/04/10 05:42:56;;;;;;;4.57;1.30;;;3.20;99.90;;;;;;5036656;28;20752;-84
2022/04/10 05:45:22;;;;;;;7.13;2.10;;;3.20;99.90;;;;;;5041409;28;20083;-84
2022/04/10 05:47:48;;;;;;;6.23;1.40;;;3.20;99.90;;;;;;5037354;28;20105;-82
2022/04/10 05:50:15;;;;;;;7.60;1.33;;;3.20;99.90;;;;;;5053079;28;20065;-86
2022/04/10 05:52:46;;;;;;;7.73;1.63;;;3.30;99.90;;;;;;5028894;28;20403;-84
2022/04/10 05:55:14;;;;;;;9.40;2.05;;;3.40;99.90;;;;;;5056694;28;20044;-80
2022/04/10 05:57:41;;;;;;;7.53;1.53;;;3.40;99.90;;;;;;5040380;28;20049;-86
2022/04/10 06:00:13;;;;;;;4.17;1.57;;;3.50;99.90;;;;;;5053421;28;20045;-84
2022/04/10 06:02:39;;;;;;;5.00;1.20;;;3.50;99.90;;;;;;5055375;28;20051;-86
2022/04/10 06:05:06;;;;;;;7.30;1.67;;;3.50;99.90;;;;;;5023120;28;20100;-82
2022/04/10 06:07:32;;;;;;;5.70;1.30;;;3.60;99.90;;;;;;5023552;28;20087;-88
2022/04/10 06:09:58;;;;;;;7.23;1.27;;;3.60;99.90;;;;;;5076408;28;20552;-86
2022/04/10 06:12:25;;;;;;;6.90;1.93;;;3.70;99.90;;;;;;5036710;28;20076;-86
2022/04/10 06:14:51;;;;;;;4.60;1.40;;;3.70;99.90;;;;;;5025693;28;20074;-86
2022/04/10 06:17:17;;;;;;;6.83;1.70;;;3.80;99.90;;;;;;5059700;28;20052;-87
2022/04/10 06:19:43;;;;;;;3.73;1.50;;;3.80;99.90;;;;;;5023323;28;20045;-86
2022/04/10 06:22:08;;;;;;;3.90;2.10;;;3.90;99.90;;;;;;5003061;28;20036;-86
2022/04/10 06:24:35;;;;;;;4.33;1.90;;;4.00;99.90;;;;;;5009672;28;20044;-86
2022/04/10 06:27:01;;;;;;;5.87;1.37;;;4.10;99.90;;;;;;5042895;28;20037;-87
2022/04/10 06:29:27;;;;;;;3.93;1.53;;;4.30;99.90;;;;;;5041553;28;20056;-90
2022/04/10 06:31:53;;;;;;;8.97;1.80;;;4.40;99.90;;;;;;5023228;28;20045;-87
2022/04/10 06:34:19;;;;;;;6.33;1.30;;;4.50;99.90;;;;;;5023653;28;20045;-87
2022/04/10 06:36:45;;;;;;;4.00;1.40;;;4.60;99.90;;;;;;5002861;28;20106;-86
2022/04/10 06:39:11;;;;;;;3.33;1.70;;;4.60;99.90;;;;;;5010761;28;20040;-86
2022/04/10 06:41:37;;;;;;;6.43;1.30;;;4.60;99.90;;;;;;5023012;28;20041;-86
2022/04/10 06:44:03;;;;;;;3.40;1.20;;;4.60;99.90;;;;;;5027051;28;20036;-86
2022/04/10 06:46:28;;;;;;;5.93;1.40;;;4.70;99.90;;;;;;5003543;28;20526;-86
2022/04/10 06:48:54;;;;;;;2.83;1.37;;;4.70;99.90;;;;;;5020953;28;20071;-88
2022/04/10 06:51:23;;;;;;;3.33;1.00;;;4.80;99.90;;;;;;5022249;28;20052;-84
2022/04/10 06:53:49;;;;;;;6.90;1.37;;;4.80;99.90;;;;;;5032868;28;20139;-82
2022/04/10 06:56:15;;;;;;;3.63;1.20;;;4.90;99.90;;;;;;5026889;28;20087;-82
2022/04/10 06:58:41;;;;;;;4.23;1.37;;;5.00;99.90;;;;;;5040097;28;20127;-83
2022/04/10 07:01:07;;;;;;;4.20;1.53;;;5.00;99.90;;;;;;5023270;28;20050;-82
2022/04/10 07:03:34;;;;;;;3.67;1.30;;;5.10;99.90;;;;;;5015674;28;20037;-83
2022/04/10 07:05:59;;;;;;;3.90;1.37;;;5.20;99.90;;;;;;5024942;28;20044;-82
2022/04/10 07:08:26;;;;;;;3.60;1.27;;;5.20;99.90;;;;;;5027049;28;20063;-82
2022/04/10 07:10:53;;;;;;;7.23;1.60;;;5.10;99.90;;;;;;5018444;28;20044;-82
2022/04/10 07:13:20;;;;;;;6.93;1.53;;;5.10;99.90;;;;;;5055072;28;20104;-82
2022/04/10 07:15:52;;;;;;;5.10;1.70;;;5.10;99.90;;;;;;5036106;28;20041;-82
2022/04/10 07:18:18;;;;;;;3.80;1.38;;;5.00;99.90;;;;;;5020717;28;20104;-82
2022/04/10 07:20:44;;;;;;;7.03;1.53;;;5.00;99.90;;;;;;5038014;28;20108;-82
2022/04/10 07:25:54;;;;;;;7.43;1.53;;;4.80;99.90;;;;;;5043792;28;20627;-81
2022/04/10 07:28:20;;;;;;;4.10;1.80;;;4.60;99.90;;;;;;5004990;28;20107;-81
2022/04/10 07:30:47;;;;;;;6.20;2.03;;;4.50;99.90;;;;;;5019691;28;20108;-81
2022/04/10 07:33:12;;;;;;;6.47;1.80;;;4.50;99.90;;;;;;5039935;28;20131;-82
2022/04/10 07:35:42;;;;;;;7.13;1.30;;;4.60;99.90;;;;;;5005384;28;20069;-82
2022/04/10 07:38:10;;;;;;;4.40;1.70;;;4.60;99.90;;;;;;5024718;28;20056;-81
2022/04/10 07:40:39;;;;;;;4.80;1.50;;;4.80;99.90;;;;;;5040168;28;20036;-82
2022/04/10 07:43:05;;;;;;;5.23;1.50;;;5.00;99.90;;;;;;5043464;28;20837;-82
2022/04/10 07:48:15;;;;;;;5.40;1.60;;;5.30;99.90;;;;;;5053724;28;20048;-83
2022/04/10 07:50:41;;;;;;;4.77;1.47;;;5.40;99.90;;;;;;5003104;28;20530;-82
2022/04/10 07:53:07;;;;;;;5.63;1.40;;;5.40;99.90;;;;;;5075840;28;20059;-82
2022/04/10 07:55:33;;;;;;;8.50;2.27;;;5.40;99.90;;;;;;5043195;28;20104;-82
2022/04/10 07:57:59;;;;;;;7.47;1.70;;;5.50;99.90;;;;;;5058406;28;20051;-82
2022/04/10 08:00:25;;;;;;;5.70;1.60;;;5.70;99.90;;;;;;5030809;28;20044;-82
2022/04/10 08:02:52;;;;;;;7.07;1.73;;;5.80;99.90;;;;;;5019034;28;20043;-82
2022/04/10 08:05:19;;;;;;;4.80;1.50;;;6.00;99.90;;;;;;5042510;28;20036;-82
2022/04/10 08:07:48;;;;;;;5.63;1.57;;;6.20;99.90;;;;;;5042255;28;20045;-83
2022/04/10 08:10:15;;;;;;;6.87;1.80;;;6.30;99.90;;;;;;5076782;28;20056;-82
2022/04/10 08:12:41;;;;;;;4.20;1.77;;;6.50;99.90;;;;;;5040918;28;20036;-83
2022/04/10 08:15:08;;;;;;;5.53;1.57;;;6.70;99.90;;;;;;5041875;28;20048;-82
2022/04/10 08:17:34;;;;;;;8.80;1.40;;;6.80;99.90;;;;;;5042693;28;20052;-82
2022/04/10 08:20:03;;;;;;;6.70;1.80;;;6.80;99.90;;;;;;5001148;28;20049;-82
2022/04/10 08:22:33;;;;;;;5.47;1.50;;;6.80;99.90;;;;;;5056794;28;20051;-82
2022/04/10 08:25:04;;;;;;;7.83;2.23;;;6.90;99.90;;;;;;5041997;28;20100;-82
2022/04/10 08:27:31;;;;;;;7.40;1.60;;;7.00;99.90;;;;;;5017025;28;20040;-83
2022/04/10 08:29:57;;;;;;;5.13;1.30;;;7.20;99.90;;;;;;5058871;28;20457;-82
2022/04/10 08:32:23;;;;;;;5.27;1.60;;;7.20;99.90;;;;;;5038781;28;20037;-82
2022/04/10 08:34:49;;;;;;;3.93;1.33;;;7.40;99.90;;;;;;5054727;28;20282;-81
2022/04/10 08:37:15;;;;;;;8.80;1.40;;;7.50;99.90;;;;;;5038108;28;20072;-82
2022/04/10 08:39:40;;;;;;;6.27;1.80;;;7.60;99.90;;;;;;5023611;28;20037;-83
2022/04/10 08:42:08;;;;;;;3.67;1.20;;;7.80;99.90;;;;;;5041404;28;20075;-80
2022/04/10 08:44:35;;;;;;;4.77;1.60;;;7.70;99.90;;;;;;5051127;28;20407;-82
2022/04/10 08:47:01;;;;;;;3.77;1.47;;;7.70;99.90;;;;;;5036716;28;20044;-84
2022/04/10 08:49:31;;;;;;;6.17;2.13;;;7.50;99.90;;;;;;5042616;28;20037;-84
2022/04/10 08:51:59;;;;;;;5.83;1.63;;;7.50;99.90;;;;;;5039059;28;20056;-85
2022/04/10 08:54:26;;;;;;;6.50;1.67;;;7.60;99.90;;;;;;5055685;28;20135;-83
2022/04/10 08:56:52;;;;;;;9.17;2.07;;;7.80;99.90;;;;;;5040145;28;20121;-83
2022/04/10 08:59:19;;;;;;;6.40;1.50;;;7.90;99.90;;;;;;5017189;28;20072;-83
2022/04/10 09:01:45;;;;;;;9.63;1.77;;;8.10;99.90;;;;;;5040034;28;20046;-83
2022/04/10 09:04:12;;;;;;;7.97;2.00;;;8.10;99.90;;;;;;5025142;28;20048;-82
2022/04/10 09:06:42;;;;;;;5.37;1.70;;;8.10;99.90;;;;;;5049419;28;20096;-83
2022/04/10 09:09:13;;;;;;;6.13;2.27;;;8.20;99.90;;;;;;5041626;28;20129;-82
2022/04/10 09:11:42;;;;;;;8.83;1.60;;;8.30;99.90;;;;;;5040209;28;20040;-84
2022/04/10 09:14:08;;;;;;;9.50;2.33;;;8.30;99.90;;;;;;5027679;28;20048;-83
2022/04/10 09:16:34;;;;;;;9.07;1.60;;;8.50;99.90;;;;;;5056225;28;20044;-85
2022/04/10 09:19:08;;;;;;;8.70;1.97;;;8.60;99.90;;;;;;5037810;28;20048;-83
2022/04/10 09:21:44;;;;;;;6.70;1.70;;;8.60;99.90;;;;;;5053282;28;20045;-84
2022/04/10 09:24:12;;;;;;;5.60;1.77;;;8.50;99.90;;;;;;5037118;28;20079;-86
2022/04/10 09:26:50;;;;;;;8.83;2.10;;;8.40;99.90;;;;;;5055143;28;20036;-87
2022/04/10 09:29:20;;;;;;;5.73;1.80;;;8.40;99.90;;;;;;5039188;28;20124;-85
2022/04/10 09:31:47;;;;;;;9.53;1.90;;;8.40;99.90;;;;;;5040232;28;20079;-85
2022/04/10 09:34:18;;;;;;;7.70;1.43;;;8.30;99.90;;;;;;5025003;28;20545;-83
2022/04/10 09:36:46;;;;;;;4.90;1.73;;;8.40;99.90;;;;;;5040323;28;20056;-84
2022/04/10 09:39:30;;;;;;;3.67;1.40;;;8.60;99.90;;;;;;5057400;28;20844;-85
2022/04/10 09:42:06;;;;;;;4.23;1.27;;;8.90;99.90;;;;;;5055345;28;20044;-84
2022/04/10 09:44:37;;;;;;;5.17;1.40;;;9.00;94.20;;;;;;5056645;28;20163;-84
2022/04/10 09:47:08;;;;;;;9.60;1.83;;;9.10;99.90;;;;;;5040585;28;20040;-84
2022/04/10 09:49:39;;;;;;;4.90;1.50;;;9.10;99.90;;;;;;5038008;28;20059;-85
2022/04/10 09:52:09;;;;;;;9.80;1.90;;;9.20;99.90;;;;;;5054659;28;20056;-86
2022/04/10 09:54:39;;;;;;;7.53;1.60;;;9.40;99.90;;;;;;5039064;28;20044;-85
2022/04/10 09:57:14;;;;;;;7.87;1.77;;;9.50;99.90;;;;;;5045470;28;20106;-85
2022/04/10 09:59:44;;;;;;;9.77;1.70;;;9.30;94.00;;;;;;5042215;28;20051;-84
2022/04/10 10:02:14;;;;;;;3.27;1.93;;;9.00;99.90;;;;;;5053477;28;20053;-85
2022/04/10 10:04:42;;;;;;;4.60;1.67;;;8.80;99.90;;;;;;5060992;28;20048;-85
2022/04/10 10:07:15;;;;;;;3.60;1.13;;;8.70;99.90;;;;;;5038644;28;20037;-84
2022/04/10 10:09:42;;;;;;;3.40;1.33;;;8.80;99.90;;;;;;5055242;28;20040;-85
2022/04/10 10:12:08;;;;;;;3.43;1.30;;;9.00;99.90;;;;;;5052672;28;20052;-83
2022/04/10 10:14:35;;;;;;;4.63;1.20;;;9.10;96.50;;;;;;5056733;28;20044;-82
2022/04/10 10:17:03;;;;;;;6.30;1.20;;;9.20;98.30;;;;;;5056953;28;20079;-83
2022/04/10 10:19:34;;;;;;;2.20;1.00;;;9.50;96.50;;;;;;5023964;28;20045;-84
2022/04/10 10:22:01;;;;;;;3.00;1.37;;;9.60;94.30;;;;;;5041090;28;20048;-84
2022/04/10 10:24:32;;;;;;;5.70;1.40;;;9.70;88.00;;;;;;5037535;28;20496;-82
2022/04/10 10:27:22;;;;;;;3.50;1.17;;;9.70;87.20;;;;;;5041336;28;20044;-82
2022/04/10 10:30:18;;;;;;;6.60;1.43;;;9.60;85.00;;;;;;5043768;28;20097;-81
2022/04/10 10:32:47;;;;;;;5.23;1.83;;;9.30;93.90;;;;;;5041874;28;20447;-82
2022/04/10 10:35:30;;;;;;;5.50;1.60;;;8.90;99.90;;;;;;5060118;28;20044;-84
2022/04/10 10:37:55;;;;;;;9.00;1.97;;;8.50;99.90;;;;;;5041948;28;20127;-85
2022/04/10 10:40:22;;;;;;;6.20;1.50;;;8.40;99.90;;;;;;5042163;28;20102;-85
2022/04/10 10:42:52;;;;;;;8.87;1.70;;;8.60;99.90;;;;;;5042206;28;20052;-85
2022/04/10 10:45:37;;;;;;;7.33;1.83;;;8.90;99.90;;;;;;5042630;28;20029;-85
2022/04/10 10:48:22;;;;;;;3.87;1.47;;;9.20;99.90;;;;;;5036667;28;20075;-84
2022/04/10 10:50:49;;;;;;;5.53;1.20;;;9.40;93.90;;;;;;5055372;28;20126;-84
2022/04/10 10:53:17;;;;;;;8.90;1.73;;;9.50;99.90;;;;;;5017500;28;20059;-84
2022/04/10 10:55:44;;;;;;;5.77;1.60;;;9.70;99.90;;;;;;5022580;28;20048;-85
2022/04/10 10:58:14;;;;;;;5.03;1.50;;;9.90;99.90;;;;;;5055406;28;20072;-86
2022/04/10 11:00:39;;;;;;;6.43;1.80;;;10.10;99.90;;;;;;5039420;28;20054;-84
2022/04/10 11:03:09;;;;;;;6.00;1.43;;;10.20;99.90;;;;;;5022461;28;20053;-86
2022/04/10 11:05:36;;;;;;;7.40;1.67;;;10.00;96.40;;;;;;5032293;28;20038;-85
2022/04/10 11:08:05;;;;;;;8.00;1.73;;;9.80;99.90;;;;;;5016439;28;20151;-85
2022/04/10 11:10:35;;;;;;;3.53;1.30;;;9.60;99.90;;;;;;5037648;28;20047;-84
2022/04/10 11:13:07;;;;;;;5.07;1.47;;;10.00;99.90;;;;;;5038920;28;20037;-85
2022/04/10 11:15:54;;;;;;;5.15;1.80;;;10.20;98.60;;;;;;5036768;28;20060;-83
2022/04/10 11:18:23;;;;;;;6.60;2.03;;;10.40;97.10;;;;;;5025600;28;20041;-82
2022/04/10 11:20:57;;;;;;;3.53;1.50;;;10.70;91.70;;;;;;5033533;28;20048;-82
2022/04/10 11:23:29;;;;;;;10.03;1.97;;;10.50;90.10;;;;;;5037243;28;20133;-82
2022/04/10 11:26:02;;;;;;;7.57;2.00;;;10.30;93.70;;;;;;5016690;28;20063;-86
2022/04/10 11:28:31;;;;;;;8.17;1.37;;;10.30;98.40;;;;;;5035403;28;20037;-85
2022/04/10 11:31:00;;;;;;;7.30;1.50;;;10.50;97.90;;;;;;5051563;28;20045;-82
2022/04/10 11:33:48;;;;;;;6.07;1.60;;;10.60;95.00;;;;;;5035432;28;20050;-80
2022/04/10 11:36:17;;;;;;;6.53;1.37;;;10.70;86.20;;;;;;5033046;28;20057;-81
2022/04/10 11:39:09;;;;;;;3.33;1.07;;;11.00;95.20;;;;;;5052259;28;20049;-82
2022/04/10 11:41:36;;;;;;;3.42;1.48;;;11.10;85.10;;;;;;5050550;28;20052;-81
2022/04/10 11:44:06;;;;;;;3.60;1.20;;;11.10;91.10;;;;;;5012633;28;20122;-82
2022/04/10 11:46:32;;;;;;;5.90;1.87;;;10.80;85.90;;;;;;5012100;28;20049;-81
2022/04/10 11:48:58;;;;;;;5.97;1.40;;;10.70;91.00;;;;;;5021560;28;20044;-81
2022/04/10 11:51:24;;;;;;;7.63;1.50;;;10.50;92.10;;;;;;5021296;28;20082;-79
2022/04/10 11:53:58;;;;;;;5.37;1.37;;;10.20;97.30;;;;;;5031166;28;20040;-79
2022/04/10 11:56:24;;;;;;;4.50;1.57;;;9.90;99.90;;;;;;5040488;28;20049;-79
2022/04/10 11:58:50;;;;;;;4.57;1.70;;;9.80;99.90;;;;;;5041333;28;20048;-80
2022/04/10 12:01:17;;;;;;;8.30;2.07;;;9.80;99.90;;;;;;5037963;28;20040;-80
2022/04/10 12:03:46;;;;;;;4.43;1.47;;;10.00;99.90;;;;;;5016205;28;20041;-80
2022/04/10 12:06:19;;;;;;;7.50;2.00;;;10.10;99.00;;;;;;5026211;28;20115;-80
2022/04/10 12:08:46;;;;;;;4.30;1.50;;;10.20;91.50;;;;;;5027987;28;20249;-80
2022/04/10 12:11:11;;;;;;;3.50;1.30;;;10.10;98.70;;;;;;5025510;28;20044;-80
2022/04/10 12:13:37;;;;;;;5.97;1.50;;;10.20;98.00;;;;;;5025922;28;20519;-80
2022/04/10 12:16:16;;;;;;;3.53;1.50;;;10.40;95.30;;;;;;5035729;28;20132;-78
2022/04/10 12:18:53;;;;;;;7.93;1.83;;;10.80;91.00;;;;;;5058161;28;20443;-81
2022/04/10 12:21:22;;;;;;;2.93;1.20;;;11.10;85.80;;;;;;5039096;28;20059;-81
2022/04/10 12:24:04;;;;;;;5.03;1.30;;;11.20;85.90;;;;;;5027091;28;20071;-80
2022/04/10 12:26:32;;;;;;;5.85;1.50;;;11.00;77.30;;;;;;5059132;28;20044;-81
2022/04/10 12:28:58;;;;;;;6.50;2.10;;;10.80;86.70;;;;;;5041168;28;20485;-81
2022/04/10 12:31:25;;;;;;;3.50;1.50;;;10.70;90.40;;;;;;5035845;28;20048;-80
2022/04/10 12:33:51;;;;;;;6.63;1.60;;;10.60;92.90;;;;;;5057910;28;20037;-80
2022/04/10 12:36:17;;;;;;;4.53;1.30;;;10.50;90.50;;;;;;5008689;28;20052;-81
2022/04/10 12:38:43;;;;;;;4.50;1.47;;;10.50;85.40;;;;;;5041410;28;20071;-80
2022/04/10 12:41:09;;;;;;;7.77;1.47;;;10.70;86.10;;;;;;5007142;28;20590;-79
2022/04/10 12:43:35;;;;;;;4.83;1.60;;;11.00;87.70;;;;;;5040788;28;20103;-81
2022/04/10 12:46:12;;;;;;;2.40;1.27;;;11.20;86.40;;;;;;5020334;28;20050;-78
2022/04/10 12:48:38;;;;;;;7.47;1.67;;;11.50;83.70;;;;;;5040178;28;20036;-78
2022/04/10 12:51:06;;;;;;;3.63;1.20;;;11.80;80.10;;;;;;5034094;28;20061;-78
2022/04/10 12:53:32;;;;;;;4.83;1.53;;;11.80;76.60;;;;;;5052557;28;20124;-78
2022/04/10 12:55:58;;;;;;;5.80;1.40;;;12.00;77.50;;;;;;5032302;28;20490;-79
2022/04/10 12:58:29;;;;;;;5.63;1.47;;;11.90;73.90;;;;;;5019553;28;20049;-78
2022/04/10 13:00:55;;;;;;;3.67;1.27;;;11.60;73.00;;;;;;5036300;28;20053;-78